createdAt,value
2019-03-28T00:00:08.719Z,0.00
2019-03-28T00:01:08.891Z,0.00
2019-03-28T00:02:09.450Z,0.00
2019-03-28T00:03:08.594Z,0.00
2019-03-28T00:04:08.576Z,0.00
2019-03-28T00:05:08.570Z,0.00
2019-03-28T00:06:08.595Z,0.00
2019-03-28T00:07:08.592Z,0.00
2019-03-28T00:08:08.528Z,0.00
2019-03-28T00:09:08.528Z,0.00
2019-03-28T00:10:08.521Z,0.00
2019-03-28T00:11:09.083Z,0.00
2019-03-28T00:12:08.502Z,0.00
2019-03-28T00:13:08.480Z,0.00
2019-03-28T00:14:08.473Z,0.00
2019-03-28T00:15:08.460Z,0.00
2019-03-28T00:16:08.467Z,0.00
2019-03-28T00:17:08.438Z,0.00
2019-03-28T00:18:08.435Z,0.00
2019-03-28T00:19:08.423Z,0.00
2019-03-28T00:20:08.396Z,0.00
2019-03-28T00:21:08.389Z,0.00
2019-03-28T00:22:08.417Z,0.00
2019-03-28T00:23:08.370Z,0.00
2019-03-28T00:24:08.356Z,0.00
2019-03-28T00:25:08.356Z,0.00
2019-03-28T00:26:08.337Z,0.00
2019-03-28T00:27:08.332Z,0.00
2019-03-28T00:28:08.330Z,0.00
2019-03-28T00:29:08.303Z,0.00
2019-03-28T00:30:08.287Z,0.00
2019-03-28T00:31:08.336Z,0.00
2019-03-28T00:32:08.280Z,0.00
2019-03-28T00:33:08.267Z,0.00
2019-03-28T00:34:08.241Z,0.00
2019-03-28T00:35:08.233Z,0.00
2019-03-28T00:36:08.221Z,0.00
2019-03-28T00:37:09.001Z,0.00
2019-03-28T00:38:08.206Z,0.00
2019-03-28T00:39:08.203Z,0.00
2019-03-28T00:40:08.199Z,0.00
2019-03-28T00:41:08.194Z,0.00
2019-03-28T00:42:08.158Z,0.00
2019-03-28T00:43:08.144Z,0.00
2019-03-28T00:44:08.134Z,0.00
2019-03-28T00:45:08.172Z,0.00
2019-03-28T00:46:08.110Z,0.00
2019-03-28T00:47:08.100Z,0.00
2019-03-28T00:48:08.090Z,0.00
2019-03-28T00:49:08.175Z,0.00
2019-03-28T00:50:08.267Z,0.00
2019-03-28T00:51:08.057Z,0.00
2019-03-28T00:52:08.059Z,0.00
2019-03-28T00:53:08.033Z,0.00
2019-03-28T00:54:08.026Z,0.00
2019-03-28T00:55:08.014Z,0.00
2019-03-28T00:56:08.056Z,0.00
2019-03-28T00:57:07.995Z,0.00
2019-03-28T00:58:07.988Z,0.00
2019-03-28T00:59:07.969Z,0.00
2019-03-28T01:00:07.957Z,0.00
2019-03-28T01:01:07.944Z,0.00
2019-03-28T01:02:07.941Z,0.00
2019-03-28T01:03:07.925Z,0.00
2019-03-28T01:04:07.913Z,0.00
2019-03-28T01:05:07.900Z,0.00
2019-03-28T01:06:07.896Z,0.00
2019-03-28T01:07:07.881Z,0.00
2019-03-28T01:08:07.871Z,0.00
2019-03-28T01:09:07.856Z,0.00
2019-03-28T01:10:07.861Z,0.00
2019-03-28T01:11:07.844Z,0.00
2019-03-28T01:12:07.857Z,0.00
2019-03-28T01:13:07.833Z,0.00
2019-03-28T01:14:08.280Z,0.00
2019-03-28T01:15:07.816Z,0.00
2019-03-28T01:16:07.784Z,0.00
2019-03-28T01:17:07.787Z,0.00
2019-03-28T01:18:07.791Z,0.00
2019-03-28T01:19:07.758Z,0.00
2019-03-28T01:20:07.732Z,0.00
2019-03-28T01:21:07.734Z,0.00
2019-03-28T01:22:07.717Z,0.00
2019-03-28T01:23:07.704Z,0.00
2019-03-28T01:24:07.703Z,0.00
2019-03-28T01:25:07.682Z,0.00
2019-03-28T01:26:07.699Z,0.00
2019-03-28T01:27:07.661Z,0.00
2019-03-28T01:28:07.653Z,0.00
2019-03-28T01:29:07.637Z,0.00
2019-03-28T01:30:07.626Z,0.00
2019-03-28T01:31:07.615Z,0.00
2019-03-28T01:32:07.604Z,0.00
2019-03-28T01:33:07.595Z,0.00
2019-03-28T01:34:08.134Z,0.00
2019-03-28T01:35:07.569Z,0.00
2019-03-28T01:36:07.555Z,0.00
2019-03-28T01:37:07.561Z,0.00
2019-03-28T01:38:07.533Z,0.00
2019-03-28T01:39:07.530Z,0.00
2019-03-28T01:40:07.512Z,0.00
2019-03-28T01:41:07.511Z,0.00
2019-03-28T01:42:07.494Z,0.00
2019-03-28T01:43:07.481Z,0.00
2019-03-28T01:44:07.468Z,0.00
2019-03-28T01:45:08.247Z,0.00
2019-03-28T01:46:07.447Z,0.00
2019-03-28T01:47:07.441Z,0.00
2019-03-28T01:48:08.273Z,0.00
2019-03-28T01:49:07.415Z,0.00
2019-03-28T01:50:07.402Z,0.00
2019-03-28T01:51:07.391Z,0.00
2019-03-28T01:52:07.387Z,0.00
2019-03-28T01:53:07.373Z,0.00
2019-03-28T01:54:07.357Z,0.00
2019-03-28T01:55:07.350Z,0.00
2019-03-28T01:56:07.332Z,0.00
2019-03-28T01:57:11.227Z,0.00
2019-03-28T01:58:07.309Z,0.00
2019-03-28T01:59:07.308Z,0.00
2019-03-28T02:00:07.293Z,0.00
2019-03-28T02:01:07.279Z,0.00
2019-03-28T02:02:07.268Z,0.00
2019-03-28T02:03:07.259Z,0.00
2019-03-28T02:04:07.243Z,0.00
2019-03-28T02:05:07.235Z,0.00
2019-03-28T02:06:07.227Z,0.00
2019-03-28T02:07:07.210Z,0.00
2019-03-28T02:08:07.199Z,0.00
2019-03-28T02:09:07.192Z,0.00
2019-03-28T02:10:07.181Z,0.00
2019-03-28T02:11:07.170Z,0.00
2019-03-28T02:12:07.157Z,0.00
2019-03-28T02:13:07.151Z,0.00
2019-03-28T02:14:07.135Z,0.00
2019-03-28T02:15:07.130Z,0.00
2019-03-28T02:16:07.109Z,0.00
2019-03-28T02:17:07.114Z,0.00
2019-03-28T02:18:07.089Z,0.00
2019-03-28T02:19:07.079Z,0.00
2019-03-28T02:20:07.261Z,0.00
2019-03-28T02:21:09.501Z,0.00
2019-03-28T02:22:07.044Z,0.00
2019-03-28T02:23:07.035Z,0.00
2019-03-28T02:24:07.030Z,0.00
2019-03-28T02:25:07.155Z,0.00
2019-03-28T02:26:07.186Z,0.00
2019-03-28T02:27:07.017Z,0.00
2019-03-28T02:28:07.038Z,0.00
2019-03-28T02:29:07.306Z,0.00
2019-03-28T02:30:07.062Z,0.00
2019-03-28T02:31:06.961Z,0.00
2019-03-28T02:32:06.942Z,0.00
2019-03-28T02:33:06.933Z,0.00
2019-03-28T02:34:07.003Z,0.00
2019-03-28T02:35:06.951Z,0.00
2019-03-28T02:36:06.888Z,0.00
2019-03-28T02:37:06.882Z,0.00
2019-03-28T02:38:06.893Z,0.00
2019-03-28T02:39:06.854Z,0.00
2019-03-28T02:40:07.019Z,0.00
2019-03-28T02:41:06.833Z,0.00
2019-03-28T02:42:06.822Z,0.00
2019-03-28T02:43:06.816Z,0.00
2019-03-28T02:44:06.802Z,0.00
2019-03-28T02:45:06.799Z,0.00
2019-03-28T02:46:06.785Z,0.00
2019-03-28T02:47:06.776Z,0.00
2019-03-28T02:48:06.761Z,0.00
2019-03-28T02:49:06.752Z,0.00
2019-03-28T02:50:06.733Z,0.00
2019-03-28T02:51:06.722Z,0.00
2019-03-28T02:52:06.718Z,0.00
2019-03-28T02:53:06.700Z,0.00
2019-03-28T02:54:06.708Z,0.00
2019-03-28T02:55:06.687Z,0.00
2019-03-28T02:56:06.721Z,0.00
2019-03-28T02:57:07.686Z,0.00
2019-03-28T02:58:06.648Z,0.00
2019-03-28T02:59:06.637Z,0.00
2019-03-28T03:00:06.626Z,0.00
2019-03-28T03:01:06.615Z,0.00
2019-03-28T03:02:06.819Z,0.00
2019-03-28T03:03:06.593Z,0.00
2019-03-28T03:04:06.583Z,0.00
2019-03-28T03:05:06.571Z,0.00
2019-03-28T03:06:06.559Z,0.00
2019-03-28T03:07:06.554Z,0.00
2019-03-28T03:08:07.705Z,0.00
2019-03-28T03:09:06.532Z,0.00
2019-03-28T03:10:06.507Z,0.00
2019-03-28T03:11:06.497Z,0.00
2019-03-28T03:12:06.492Z,0.00
2019-03-28T03:13:06.491Z,0.00
2019-03-28T03:14:06.473Z,0.00
2019-03-28T03:15:06.554Z,0.00
2019-03-28T03:16:06.446Z,0.00
2019-03-28T03:17:06.436Z,0.00
2019-03-28T03:18:07.675Z,0.00
2019-03-28T03:19:06.412Z,0.00
2019-03-28T03:20:06.405Z,0.00
2019-03-28T03:21:06.386Z,0.00
2019-03-28T03:22:06.387Z,0.00
2019-03-28T03:23:06.363Z,0.00
2019-03-28T03:24:06.352Z,0.00
2019-03-28T03:25:06.344Z,0.00
2019-03-28T03:26:06.334Z,0.00
2019-03-28T03:27:06.327Z,0.00
2019-03-28T03:28:06.329Z,0.00
2019-03-28T03:29:06.297Z,0.00
2019-03-28T03:30:06.308Z,0.00
2019-03-28T03:31:06.274Z,0.00
2019-03-28T03:32:06.269Z,0.00
2019-03-28T03:33:06.283Z,0.00
2019-03-28T03:34:06.244Z,0.00
2019-03-28T03:35:06.236Z,0.00
2019-03-28T03:36:06.218Z,0.00
2019-03-28T03:37:06.212Z,0.00
2019-03-28T03:38:06.195Z,0.00
2019-03-28T03:39:06.186Z,0.00
2019-03-28T03:40:06.207Z,0.00
2019-03-28T03:41:06.183Z,0.00
2019-03-28T03:42:06.152Z,0.00
2019-03-28T03:43:06.152Z,0.00
2019-03-28T03:44:06.137Z,0.00
2019-03-28T03:45:06.126Z,0.00
2019-03-28T03:46:06.109Z,0.00
2019-03-28T03:47:06.113Z,0.00
2019-03-28T03:48:06.089Z,0.00
2019-03-28T03:49:06.075Z,0.00
2019-03-28T03:50:06.064Z,0.00
2019-03-28T03:51:06.057Z,0.00
2019-03-28T03:52:06.040Z,0.00
2019-03-28T03:53:06.033Z,0.00
2019-03-28T03:54:06.029Z,0.00
2019-03-28T03:55:06.007Z,0.00
2019-03-28T03:56:06.003Z,0.00
2019-03-28T03:57:05.990Z,0.00
2019-03-28T03:58:15.641Z,0.00
2019-03-28T03:59:06.967Z,0.00
2019-03-28T04:00:05.957Z,0.00
2019-03-28T04:01:05.944Z,0.00
2019-03-28T04:02:05.933Z,0.00
2019-03-28T04:03:05.925Z,0.00
2019-03-28T04:04:05.934Z,0.00
2019-03-28T04:05:05.901Z,0.00
2019-03-28T04:06:05.889Z,0.00
2019-03-28T04:07:05.881Z,0.00
2019-03-28T04:08:05.872Z,0.00
2019-03-28T04:09:05.856Z,0.00
2019-03-28T04:10:05.854Z,0.00
2019-03-28T04:11:05.833Z,0.00
2019-03-28T04:12:05.850Z,0.00
2019-03-28T04:13:05.863Z,0.00
2019-03-28T04:14:05.801Z,0.00
2019-03-28T04:15:05.819Z,0.00
2019-03-28T04:16:05.784Z,0.00
2019-03-28T04:17:05.766Z,0.00
2019-03-28T04:18:05.752Z,0.00
2019-03-28T04:19:05.953Z,0.00
2019-03-28T04:20:05.739Z,0.00
2019-03-28T04:21:05.727Z,0.00
2019-03-28T04:22:05.714Z,0.00
2019-03-28T04:23:05.711Z,0.00
2019-03-28T04:24:05.692Z,0.00
2019-03-28T04:25:05.673Z,0.00
2019-03-28T04:26:06.007Z,0.00
2019-03-28T04:27:05.654Z,0.00
2019-03-28T04:28:05.649Z,0.00
2019-03-28T04:29:05.639Z,0.00
2019-03-28T04:30:05.626Z,0.00
2019-03-28T04:31:05.792Z,0.00
2019-03-28T04:32:05.600Z,0.00
2019-03-28T04:33:05.607Z,0.00
2019-03-28T04:34:07.825Z,0.00
2019-03-28T04:35:05.573Z,0.00
2019-03-28T04:36:05.567Z,0.00
2019-03-28T04:37:06.507Z,0.00
2019-03-28T04:38:05.540Z,0.00
2019-03-28T04:39:05.526Z,0.00
2019-03-28T04:40:05.515Z,0.00
2019-03-28T04:41:05.535Z,0.00
2019-03-28T04:42:05.492Z,0.00
2019-03-28T04:43:05.479Z,0.00
2019-03-28T04:44:05.470Z,0.00
2019-03-28T04:45:05.646Z,0.00
2019-03-28T04:46:05.442Z,0.00
2019-03-28T04:47:05.433Z,0.00
2019-03-28T04:48:05.420Z,0.00
2019-03-28T04:49:05.414Z,0.00
2019-03-28T04:50:05.396Z,0.00
2019-03-28T04:51:05.383Z,0.00
2019-03-28T04:52:05.375Z,0.00
2019-03-28T04:53:05.365Z,0.00
2019-03-28T04:54:05.354Z,5.62
2019-03-28T04:55:05.341Z,5.62
2019-03-28T04:56:05.328Z,5.62
2019-03-28T04:57:05.320Z,5.62
2019-03-28T04:58:05.305Z,5.62
2019-03-28T04:59:05.294Z,11.25
2019-03-28T05:00:05.287Z,11.25
2019-03-28T05:01:05.276Z,11.25
2019-03-28T05:02:05.435Z,11.25
2019-03-28T05:03:05.249Z,16.88
2019-03-28T05:04:05.239Z,16.88
2019-03-28T05:05:05.228Z,16.88
2019-03-28T05:06:05.218Z,22.50
2019-03-28T05:07:05.209Z,22.50
2019-03-28T05:08:05.194Z,28.12
2019-03-28T05:09:05.180Z,28.12
2019-03-28T05:10:05.174Z,28.12
2019-03-28T05:11:05.158Z,33.75
2019-03-28T05:12:05.155Z,33.75
2019-03-28T05:13:05.189Z,39.38
2019-03-28T05:14:05.131Z,39.38
2019-03-28T05:15:06.030Z,45.00
2019-03-28T05:16:05.107Z,50.62
2019-03-28T05:17:05.096Z,50.62
2019-03-28T05:18:05.085Z,56.25
2019-03-28T05:19:05.073Z,56.25
2019-03-28T05:20:05.060Z,61.88
2019-03-28T05:21:05.050Z,61.88
2019-03-28T05:22:05.043Z,67.50
2019-03-28T05:23:05.028Z,73.12
2019-03-28T05:24:05.019Z,73.12
2019-03-28T05:25:05.013Z,78.75
2019-03-28T05:26:04.991Z,84.38
2019-03-28T05:27:04.982Z,84.38
2019-03-28T05:28:04.973Z,90.00
2019-03-28T05:29:04.958Z,95.62
2019-03-28T05:30:06.566Z,95.62
2019-03-28T05:31:04.936Z,101.25
2019-03-28T05:32:04.925Z,106.88
2019-03-28T05:33:04.913Z,106.88
2019-03-28T05:34:04.906Z,112.50
2019-03-28T05:35:04.896Z,118.12
2019-03-28T05:36:04.894Z,118.12
2019-03-28T05:37:04.873Z,123.75
2019-03-28T05:38:04.862Z,129.38
2019-03-28T05:39:04.851Z,129.38
2019-03-28T05:40:04.839Z,135.00
2019-03-28T05:41:04.829Z,140.62
2019-03-28T05:42:04.817Z,151.88
2019-03-28T05:43:04.811Z,168.75
2019-03-28T05:44:04.799Z,180.00
2019-03-28T05:45:04.789Z,185.62
2019-03-28T05:46:04.780Z,191.25
2019-03-28T05:47:04.763Z,196.88
2019-03-28T05:48:04.749Z,196.88
2019-03-28T05:49:04.741Z,202.50
2019-03-28T05:50:04.728Z,208.12
2019-03-28T05:51:04.718Z,213.75
2019-03-28T05:52:04.706Z,219.38
2019-03-28T05:53:04.698Z,225.00
2019-03-28T05:54:04.683Z,230.62
2019-03-28T05:55:05.497Z,236.25
2019-03-28T05:56:04.686Z,247.50
2019-03-28T05:57:04.651Z,253.12
2019-03-28T05:58:04.645Z,258.75
2019-03-28T05:59:10.632Z,264.38
2019-03-28T06:00:05.617Z,270.00
2019-03-28T06:01:04.638Z,275.62
2019-03-28T06:02:04.624Z,281.25
2019-03-28T06:03:04.585Z,292.50
2019-03-28T06:04:04.603Z,292.50
2019-03-28T06:05:04.589Z,303.75
2019-03-28T06:06:04.557Z,303.75
2019-03-28T06:07:04.542Z,303.75
2019-03-28T06:08:04.530Z,309.38
2019-03-28T06:09:04.518Z,315.00
2019-03-28T06:10:04.512Z,320.62
2019-03-28T06:11:04.510Z,326.25
2019-03-28T06:12:04.494Z,331.88
2019-03-28T06:13:04.482Z,343.12
2019-03-28T06:14:04.466Z,348.75
2019-03-28T06:15:04.450Z,354.38
2019-03-28T06:16:04.451Z,365.62
2019-03-28T06:17:04.453Z,371.25
2019-03-28T06:18:04.439Z,376.88
2019-03-28T06:19:04.418Z,388.12
2019-03-28T06:20:04.440Z,393.75
2019-03-28T06:21:04.401Z,405.00
2019-03-28T06:22:04.390Z,410.62
2019-03-28T06:23:04.374Z,421.88
2019-03-28T06:24:05.295Z,433.12
2019-03-28T06:25:05.978Z,444.38
2019-03-28T06:26:04.339Z,472.50
2019-03-28T06:27:04.324Z,517.50
2019-03-28T06:28:04.350Z,573.75
2019-03-28T06:29:04.313Z,635.62
2019-03-28T06:30:04.321Z,731.25
2019-03-28T06:31:04.278Z,967.50
2019-03-28T06:32:04.308Z,1282.50
2019-03-28T06:33:04.258Z,1305.00
2019-03-28T06:34:04.239Z,1372.50
2019-03-28T06:35:04.235Z,1271.25
2019-03-28T06:36:04.253Z,1096.88
2019-03-28T06:37:04.217Z,1051.88
2019-03-28T06:38:04.197Z,1170.00
2019-03-28T06:39:04.200Z,1310.62
2019-03-28T06:40:04.278Z,1254.38
2019-03-28T06:41:04.169Z,1226.25
2019-03-28T06:42:04.161Z,1260.00
2019-03-28T06:43:04.164Z,1327.50
2019-03-28T06:44:04.146Z,1310.62
2019-03-28T06:45:04.192Z,1383.75
2019-03-28T06:46:04.204Z,1305.00
2019-03-28T06:47:04.146Z,1338.75
2019-03-28T06:48:04.195Z,1428.75
2019-03-28T06:49:04.179Z,1496.25
2019-03-28T06:50:04.066Z,1575.00
2019-03-28T06:51:04.180Z,1580.62
2019-03-28T06:52:04.145Z,1378.12
2019-03-28T06:53:04.107Z,1271.25
2019-03-28T06:54:04.502Z,1468.12
2019-03-28T06:55:04.049Z,1541.25
2019-03-28T06:56:04.055Z,1434.38
2019-03-28T06:57:04.040Z,1507.50
2019-03-28T06:58:04.012Z,1558.12
2019-03-28T06:59:03.966Z,1569.38
2019-03-28T07:00:03.954Z,1423.12
2019-03-28T07:01:03.945Z,1383.75
2019-03-28T07:02:03.938Z,1395.00
2019-03-28T07:03:03.917Z,1558.12
2019-03-28T07:04:04.502Z,1670.62
2019-03-28T07:05:03.905Z,1648.12
2019-03-28T07:06:03.889Z,1822.50
2019-03-28T07:07:03.876Z,1794.38
2019-03-28T07:08:03.878Z,1597.50
2019-03-28T07:09:03.851Z,1563.75
2019-03-28T07:10:03.862Z,1569.38
2019-03-28T07:11:03.830Z,1603.12
2019-03-28T07:12:03.824Z,1895.62
2019-03-28T07:13:03.812Z,2143.12
2019-03-28T07:14:03.804Z,2013.75
2019-03-28T07:15:03.792Z,1681.88
2019-03-28T07:16:03.771Z,1721.25
2019-03-28T07:17:03.772Z,1845.00
2019-03-28T07:18:03.754Z,1777.50
2019-03-28T07:19:03.745Z,2413.12
2019-03-28T07:20:03.729Z,2655.00
2019-03-28T07:21:03.721Z,2475.00
2019-03-28T07:22:03.702Z,2491.88
2019-03-28T07:23:03.696Z,2424.38
2019-03-28T07:24:03.694Z,2115.00
2019-03-28T07:25:03.675Z,2120.62
2019-03-28T07:26:03.660Z,2328.75
2019-03-28T07:27:03.652Z,3285.00
2019-03-28T07:28:06.230Z,3105.00
2019-03-28T07:29:03.635Z,2835.00
2019-03-28T07:30:03.620Z,3470.62
2019-03-28T07:31:03.603Z,3217.50
2019-03-28T07:32:03.600Z,1957.50
2019-03-28T07:33:03.612Z,1575.00
2019-03-28T07:34:03.577Z,1445.62
2019-03-28T07:35:03.564Z,1338.75
2019-03-28T07:36:03.563Z,1260.00
2019-03-28T07:37:03.550Z,1237.50
2019-03-28T07:38:03.592Z,1231.88
2019-03-28T07:39:03.521Z,1226.25
2019-03-28T07:40:03.511Z,1209.38
2019-03-28T07:41:03.495Z,1203.75
2019-03-28T07:42:03.494Z,1186.88
2019-03-28T07:43:03.475Z,1181.25
2019-03-28T07:44:03.466Z,1181.25
2019-03-28T07:45:03.458Z,1186.88
2019-03-28T07:46:03.482Z,1186.88
2019-03-28T07:47:03.433Z,1209.38
2019-03-28T07:48:03.423Z,1203.75
2019-03-28T07:49:03.422Z,1226.25
2019-03-28T07:50:03.397Z,1237.50
2019-03-28T07:51:03.384Z,1231.88
2019-03-28T07:52:03.382Z,1260.00
2019-03-28T07:53:03.379Z,1282.50
2019-03-28T07:54:03.353Z,1260.00
2019-03-28T07:55:03.434Z,1260.00
2019-03-28T07:56:03.347Z,1260.00
2019-03-28T07:57:03.346Z,1248.75
2019-03-28T07:58:03.316Z,1243.12
2019-03-28T07:59:03.329Z,1260.00
2019-03-28T08:00:04.757Z,1243.12
2019-03-28T08:01:03.330Z,1254.38
2019-03-28T08:02:03.310Z,1265.62
2019-03-28T08:03:03.278Z,1276.88
2019-03-28T08:04:03.249Z,1299.38
2019-03-28T08:05:03.278Z,1305.00
2019-03-28T08:06:03.262Z,1310.62
2019-03-28T08:07:03.220Z,1333.12
2019-03-28T08:08:03.205Z,1327.50
2019-03-28T08:09:03.220Z,1344.38
2019-03-28T08:10:03.192Z,1344.38
2019-03-28T08:11:03.174Z,1366.88
2019-03-28T08:12:03.224Z,1361.25
2019-03-28T08:13:03.241Z,1383.75
2019-03-28T08:14:03.166Z,1400.62
2019-03-28T08:15:03.114Z,1462.50
2019-03-28T08:16:03.107Z,1524.38
2019-03-28T08:17:03.098Z,1591.88
2019-03-28T08:18:03.085Z,1659.38
2019-03-28T08:19:03.094Z,1805.62
2019-03-28T08:20:03.159Z,1940.62
2019-03-28T08:21:03.058Z,1974.38
2019-03-28T08:22:03.049Z,1974.38
2019-03-28T08:23:03.034Z,2098.12
2019-03-28T08:24:03.027Z,2413.12
2019-03-28T08:25:03.227Z,2317.50
2019-03-28T08:26:03.011Z,2227.50
2019-03-28T08:27:02.998Z,2615.62
2019-03-28T08:28:03.056Z,2874.38
2019-03-28T08:29:02.964Z,2739.38
2019-03-28T08:30:02.959Z,2700.00
2019-03-28T08:31:02.950Z,2666.25
2019-03-28T08:32:02.945Z,2587.50
2019-03-28T08:33:02.929Z,2514.38
2019-03-28T08:34:02.969Z,2497.50
2019-03-28T08:35:26.650Z,2671.88
2019-03-28T08:36:02.887Z,2615.62
2019-03-28T08:37:02.886Z,2525.62
2019-03-28T08:38:03.063Z,2683.12
2019-03-28T08:39:02.871Z,2610.00
2019-03-28T08:40:02.860Z,2604.38
2019-03-28T08:41:02.845Z,2497.50
2019-03-28T08:42:02.834Z,2441.25
2019-03-28T08:43:02.824Z,2576.25
2019-03-28T08:44:02.801Z,2711.25
2019-03-28T08:45:02.848Z,2863.12
2019-03-28T08:46:02.830Z,3037.50
2019-03-28T08:47:06.057Z,2936.25
2019-03-28T08:48:02.767Z,2750.62
2019-03-28T08:49:02.755Z,2655.00
2019-03-28T08:50:02.737Z,2700.00
2019-03-28T08:51:02.732Z,2885.62
2019-03-28T08:52:02.717Z,2936.25
2019-03-28T08:53:02.710Z,3071.25
2019-03-28T08:54:02.694Z,3234.38
2019-03-28T08:55:02.818Z,3307.50
2019-03-28T08:56:02.733Z,3071.25
2019-03-28T08:57:02.666Z,2953.12
2019-03-28T08:58:02.661Z,3223.12
2019-03-28T08:59:02.660Z,3352.50
2019-03-28T09:00:02.630Z,2970.00
2019-03-28T09:01:02.633Z,2891.25
2019-03-28T09:02:05.037Z,3183.75
2019-03-28T09:03:02.607Z,3386.25
2019-03-28T09:04:02.631Z,2863.12
2019-03-28T09:05:02.673Z,2458.12
2019-03-28T09:06:02.586Z,2694.38
2019-03-28T09:07:02.594Z,2992.50
2019-03-28T09:08:02.602Z,2925.00
2019-03-28T09:09:02.681Z,2683.12
2019-03-28T09:10:02.526Z,2705.62
2019-03-28T09:11:02.517Z,3189.38
2019-03-28T09:12:02.543Z,3375.00
2019-03-28T09:13:02.497Z,3279.38
2019-03-28T09:14:02.482Z,3020.62
2019-03-28T09:15:02.527Z,2806.88
2019-03-28T09:16:02.480Z,2936.25
2019-03-28T09:17:02.472Z,3048.75
2019-03-28T09:18:02.511Z,2874.38
2019-03-28T09:19:02.607Z,2784.38
2019-03-28T09:20:02.454Z,2947.50
2019-03-28T09:21:02.403Z,3189.38
2019-03-28T09:22:02.403Z,2880.00
2019-03-28T09:23:02.442Z,2728.12
2019-03-28T09:24:02.378Z,2891.25
2019-03-28T09:25:02.428Z,2936.25
2019-03-28T09:26:04.408Z,3088.12
2019-03-28T09:27:02.348Z,3110.62
2019-03-28T09:28:02.327Z,2908.12
2019-03-28T09:29:02.330Z,2947.50
2019-03-28T09:30:02.312Z,3116.25
2019-03-28T09:31:02.307Z,3037.50
2019-03-28T09:32:02.300Z,2941.88
2019-03-28T09:33:02.276Z,2947.50
2019-03-28T09:34:02.279Z,3043.12
2019-03-28T09:35:02.401Z,3268.12
2019-03-28T09:36:02.243Z,3290.62
2019-03-28T09:37:02.232Z,2863.12
2019-03-28T09:38:02.232Z,2542.50
2019-03-28T09:39:02.210Z,2688.75
2019-03-28T09:40:02.199Z,3161.25
2019-03-28T09:41:02.216Z,3324.38
2019-03-28T09:42:02.189Z,3071.25
2019-03-28T09:43:02.189Z,2829.38
2019-03-28T09:44:02.158Z,2671.88
2019-03-28T09:45:02.188Z,2705.62
2019-03-28T09:46:02.296Z,3071.25
2019-03-28T09:47:02.124Z,3510.00
2019-03-28T09:48:02.126Z,3656.25
2019-03-28T09:49:02.129Z,3493.12
2019-03-28T09:50:02.096Z,3195.00
2019-03-28T09:51:02.087Z,3116.25
2019-03-28T09:52:02.090Z,3245.62
2019-03-28T09:53:02.064Z,3234.38
2019-03-28T09:54:02.058Z,2902.50
2019-03-28T09:55:02.071Z,2857.50
2019-03-28T09:56:02.041Z,3048.75
2019-03-28T09:57:02.029Z,3009.38
2019-03-28T09:58:02.007Z,2829.38
2019-03-28T09:59:02.037Z,3155.62
2019-03-28T10:00:02.042Z,3245.62
2019-03-28T10:01:03.434Z,2964.38
2019-03-28T10:02:02.537Z,3009.38
2019-03-28T10:03:01.955Z,3155.62
2019-03-28T10:04:01.955Z,2970.00
2019-03-28T10:05:01.939Z,2812.50
2019-03-28T10:06:01.930Z,2728.12
2019-03-28T10:07:01.920Z,2778.75
2019-03-28T10:08:01.915Z,3048.75
2019-03-28T10:09:01.905Z,3245.62
2019-03-28T10:10:02.084Z,3358.12
2019-03-28T10:11:01.873Z,3420.00
2019-03-28T10:12:01.932Z,3510.00
2019-03-28T10:13:01.948Z,3690.00
2019-03-28T10:14:01.861Z,3639.38
2019-03-28T10:15:01.836Z,3543.75
2019-03-28T10:16:01.828Z,3622.50
2019-03-28T10:17:01.838Z,3285.00
2019-03-28T10:18:01.803Z,3105.00
2019-03-28T10:19:01.817Z,3301.88
2019-03-28T10:20:01.795Z,3442.50
2019-03-28T10:21:01.782Z,3515.62
2019-03-28T10:22:01.772Z,3628.12
2019-03-28T10:23:02.029Z,3802.50
2019-03-28T10:24:01.907Z,3571.88
2019-03-28T10:25:01.840Z,3583.12
2019-03-28T10:26:01.725Z,3549.38
2019-03-28T10:27:01.827Z,3206.25
2019-03-28T10:28:01.701Z,3105.00
2019-03-28T10:29:01.691Z,3026.25
2019-03-28T10:30:01.855Z,3093.75
2019-03-28T10:31:15.522Z,3465.00
2019-03-28T10:32:02.677Z,3560.62
2019-03-28T10:33:01.670Z,3116.25
2019-03-28T10:34:01.659Z,2863.12
2019-03-28T10:35:01.718Z,3448.12
2019-03-28T10:36:01.639Z,3780.00
2019-03-28T10:37:01.607Z,3459.38
2019-03-28T10:38:01.607Z,3183.75
2019-03-28T10:39:01.591Z,3425.62
2019-03-28T10:40:01.578Z,3639.38
2019-03-28T10:41:02.524Z,3605.62
2019-03-28T10:42:01.554Z,3414.38
2019-03-28T10:43:01.554Z,3375.00
2019-03-28T10:44:01.535Z,3678.75
2019-03-28T10:45:01.523Z,3847.50
2019-03-28T10:46:01.522Z,3560.62
2019-03-28T10:47:04.686Z,3195.00
2019-03-28T10:48:01.738Z,3279.38
2019-03-28T10:49:01.697Z,3622.50
2019-03-28T10:50:04.044Z,3616.88
2019-03-28T10:51:01.669Z,3195.00
2019-03-28T10:52:04.094Z,2778.75
2019-03-28T10:53:01.495Z,3071.25
2019-03-28T10:54:01.460Z,3678.75
2019-03-28T10:55:01.426Z,3735.00
2019-03-28T10:56:01.442Z,3549.38
2019-03-28T10:57:12.990Z,3341.25
2019-03-28T10:58:02.394Z,3133.12
2019-03-28T10:59:01.376Z,3245.62
2019-03-28T11:00:01.382Z,3223.12
2019-03-28T11:01:01.375Z,2818.12
2019-03-28T11:02:01.355Z,2632.50
2019-03-28T11:03:01.465Z,2581.88
2019-03-28T11:04:01.381Z,2812.50
2019-03-28T11:05:01.324Z,2846.25
2019-03-28T11:06:01.313Z,2778.75
2019-03-28T11:07:01.308Z,2868.75
2019-03-28T11:08:01.287Z,2801.25
2019-03-28T11:09:01.275Z,2795.62
2019-03-28T11:10:01.403Z,2812.50
2019-03-28T11:11:01.260Z,2790.00
2019-03-28T11:12:01.243Z,3273.75
2019-03-28T11:13:01.231Z,3583.12
2019-03-28T11:14:01.233Z,3195.00
2019-03-28T11:15:01.217Z,3335.62
2019-03-28T11:16:01.212Z,3718.12
2019-03-28T11:17:01.233Z,3690.00
2019-03-28T11:18:01.203Z,3622.50
2019-03-28T11:19:01.176Z,3481.88
2019-03-28T11:20:01.173Z,3476.25
2019-03-28T11:21:01.201Z,3493.12
2019-03-28T11:22:01.159Z,3521.25
2019-03-28T11:23:02.368Z,3285.00
2019-03-28T11:24:01.127Z,3020.62
2019-03-28T11:25:01.100Z,3183.75
2019-03-28T11:26:01.099Z,3403.12
2019-03-28T11:27:01.097Z,3138.75
2019-03-28T11:28:01.076Z,2823.75
2019-03-28T11:29:01.243Z,2857.50
2019-03-28T11:30:01.051Z,2930.62
2019-03-28T11:31:01.044Z,3020.62
2019-03-28T11:32:01.034Z,2958.75
2019-03-28T11:33:01.028Z,2857.50
2019-03-28T11:34:01.017Z,2840.62
2019-03-28T11:35:01.097Z,3054.38
2019-03-28T11:36:00.997Z,3155.62
2019-03-28T11:37:00.981Z,2863.12
2019-03-28T11:38:00.970Z,2559.38
2019-03-28T11:39:02.839Z,2475.00
2019-03-28T11:40:00.949Z,2486.25
2019-03-28T11:41:00.943Z,2463.75
2019-03-28T11:42:01.998Z,2823.75
2019-03-28T11:43:00.921Z,3217.50
2019-03-28T11:44:00.907Z,3330.00
2019-03-28T11:45:00.902Z,3133.12
2019-03-28T11:46:00.895Z,2745.00
2019-03-28T11:47:00.880Z,2700.00
2019-03-28T11:48:00.874Z,2576.25
2019-03-28T11:49:00.872Z,2525.62
2019-03-28T11:50:00.870Z,2565.00
2019-03-28T11:51:00.907Z,2739.38
2019-03-28T11:52:00.894Z,2750.62
2019-03-28T11:53:00.855Z,2818.12
2019-03-28T11:54:00.903Z,3043.12
2019-03-28T11:55:00.792Z,2700.00
2019-03-28T11:56:00.950Z,2373.75
2019-03-28T11:57:00.790Z,2671.88
2019-03-28T11:58:00.814Z,3324.38
2019-03-28T11:59:04.222Z,3110.62
2019-03-28T12:00:00.996Z,2750.62
2019-03-28T12:01:00.855Z,2913.75
2019-03-28T12:02:18.646Z,2908.12
2019-03-28T12:03:01.714Z,2660.62
2019-03-28T12:04:00.901Z,2570.62
2019-03-28T12:05:00.697Z,2851.88
2019-03-28T12:06:00.695Z,3273.75
2019-03-28T12:07:00.681Z,3397.50
2019-03-28T12:08:00.666Z,3228.75
2019-03-28T12:09:00.655Z,3256.88
2019-03-28T12:10:00.657Z,3386.25
2019-03-28T12:11:00.631Z,3105.00
2019-03-28T12:12:00.627Z,2936.25
2019-03-28T12:13:00.616Z,2958.75
2019-03-28T12:14:00.600Z,2925.00
2019-03-28T12:15:00.641Z,2857.50
2019-03-28T12:16:00.580Z,2964.38
2019-03-28T12:17:00.574Z,3003.75
2019-03-28T12:18:00.555Z,3065.62
2019-03-28T12:19:00.548Z,3206.25
2019-03-28T12:20:00.565Z,3088.12
2019-03-28T12:21:00.536Z,2722.50
2019-03-28T12:22:00.523Z,2604.38
2019-03-28T12:23:00.515Z,2868.75
2019-03-28T12:24:00.504Z,3105.00
2019-03-28T12:25:00.520Z,3048.75
2019-03-28T12:26:00.511Z,2986.88
2019-03-28T12:27:00.495Z,2857.50
2019-03-28T12:28:00.622Z,2683.12
2019-03-28T12:29:00.536Z,2396.25
2019-03-28T12:30:00.576Z,2176.88
2019-03-28T12:31:00.424Z,2328.75
2019-03-28T12:32:13.358Z,2373.75
2019-03-28T12:33:01.406Z,2244.38
2019-03-28T12:34:00.411Z,2283.75
2019-03-28T12:35:00.451Z,2508.75
2019-03-28T12:36:00.375Z,2801.25